Weather History for Ingleside, TX

Change the Weather History Date:

Sunday, January 5, 2014

  Actual Average Record
Temperature  
Mean Temperature 54 °F -  
Max Temperature 65 °F - - ()
Min Temperature 44 °F - - ()
Degree Days  
Heating Degree Days 10    
Growing Degree Days 4 (Base 50)    
Moisture  
Dew Point 44 °F    
Average Humidity 68    
Maximum Humidity 100    
Minimum Humidity 32    
Precipitation  
Precipitation 0.00 in - - ()
Sea Level Pressure  
Sea Level Pressure 30.03 in    
Wind  
Wind Speed 13 mph (North)    
Max Wind Speed 24 mph    
Max Gust Speed 33 mph    
Visibility 9 miles    
Events      
T = Trace of Precipitation, MM = Missing Value Source: NWS Daily Summary

Daily Weather History Graph

Daily Weather History Graph

Search for Another Location

Airport:

Trip Planner

Search our weather history database for the weather conditions in past years. The results will help you decide how hot, cold, wet, or windy it might be!

Date:

Astronomy

Jan. 05, 2014 Rise Set
Actual Time 7:20 AM CST 5:47 PM CST
Civil Twilight 6:55 AM CST 6:13 PM CST
Nautical Twilight 6:26 AM CST 6:42 PM CST
Astronomical Twilight 5:57 AM CST 7:11 PM CST
Moon 10:29 AM CST (1/5) 10:47 PM CST (1/5)
Length of Visible Light 11h 18m
Length of Day
10h 26m
Waxing Crescent, 25% of the Moon is Illuminated
Jan 5
Waxing Crescent
Jan 7
First Quarter
Jan 15
Full
Jan 23
Last Quarter
Jan 30
New

Hourly Weather History & Observations

Time (CST) Temp. Windchill Dew Point Humidity Pressure Visibility Wind Dir Wind Speed Gust Speed Precip Events Conditions
12:15 AM 62.1 °F - 61.2 °F 97% 29.86 in 10.0 mi South 11.5 mph - N/A   Clear
12:35 AM 62.4 °F - 61.5 °F 97% 29.85 in 10.0 mi South 12.7 mph 19.6 mph N/A   Clear
12:55 AM 62.4 °F - 61.5 °F 97% 29.84 in 10.0 mi South 13.8 mph - N/A   Clear
1:15 AM 62.2 °F - 61.3 °F 97% 29.84 in 10.0 mi South 12.7 mph 17.3 mph N/A   Clear
1:35 AM 62.1 °F - 61.2 °F 97% 29.84 in 7.0 mi South 12.7 mph - N/A   Clear
1:55 AM 61.9 °F - 61.0 °F 97% 29.84 in 7.0 mi South 11.5 mph - N/A   Clear
2:15 AM 61.7 °F - 61.2 °F 98% 29.84 in 7.0 mi South 13.8 mph - N/A   Clear
2:35 AM 61.7 °F - 61.0 °F 97% 29.83 in 7.0 mi South 12.7 mph 17.3 mph N/A   Clear
2:55 AM 61.7 °F - 61.0 °F 97% 29.84 in 7.0 mi South 10.4 mph - N/A   Clear
3:15 AM 61.2 °F - 60.8 °F 99% 29.83 in 7.0 mi South 12.7 mph - N/A   Clear
3:35 AM 61.2 °F - 60.8 °F 99% 29.83 in 7.0 mi South 10.4 mph 16.1 mph N/A   Clear
3:55 AM 61.0 °F - 60.8 °F 99% 29.82 in 7.0 mi South 11.5 mph - N/A   Clear
4:15 AM 61.5 °F - 61.2 °F 99% 29.82 in 10.0 mi South 12.7 mph - N/A   Clear
4:35 AM 61.9 °F - 61.7 °F 99% 29.82 in 10.0 mi South 11.5 mph - N/A   Clear
4:55 AM 61.5 °F - 61.2 °F 99% 29.83 in 10.0 mi South 9.2 mph - N/A   Clear
5:15 AM 61.0 °F - 60.4 °F 98% 29.83 in 7.0 mi South 5.8 mph - N/A   Clear
5:35 AM 60.1 °F - 59.7 °F 99% 29.84 in 7.0 mi South 3.5 mph - N/A   Clear
5:55 AM 59.0 °F - 58.5 °F 98% 29.84 in 2.0 mi South 4.6 mph - N/A   Clear
6:15 AM 57.7 °F - 57.4 °F 99% 29.84 in 2.0 mi South 6.9 mph - N/A   Clear
6:35 AM 57.0 °F - 56.8 °F 99% 29.85 in 2.5 mi SSE 5.8 mph - N/A   Clear
6:55 AM 56.8 °F - 56.7 °F 99% 29.86 in 0.8 mi SSE 5.8 mph - N/A   Mist
7:15 AM 55.9 °F - 55.8 °F 99% 29.86 in 0.8 mi SSE 6.9 mph - N/A   Mist
7:35 AM 56.3 °F - 56.1 °F 99% 29.87 in 1.8 mi South 5.8 mph - N/A   Mist
7:55 AM 57.4 °F - 57.2 °F 99% 29.88 in 4.0 mi SSE 5.8 mph - N/A   Clear
8:15 AM 59.4 °F - 59.2 °F 99% 29.88 in 7.0 mi SSE 4.6 mph - N/A   Clear
8:35 AM 61.3 °F - 61.2 °F 99% 29.90 in 10.0 mi Calm Calm - N/A   Clear
8:55 AM 62.8 °F - 62.6 °F 99% 29.91 in 10.0 mi Calm Calm - N/A   Clear
9:15 AM 64.2 °F - 64.2 °F 100% 29.94 in 10.0 mi West 8.1 mph - N/A   Clear
9:35 AM 64.2 °F - 63.5 °F 98% 29.97 in 10.0 mi NW 5.8 mph 21.9 mph N/A   Mostly Cloudy
9:55 AM 63.0 °F - 61.9 °F 96% 29.98 in 10.0 mi NNW 6.9 mph 10.4 mph N/A   Overcast
10:15 AM 63.3 °F - 61.9 °F 95% 29.99 in 10.0 mi NNW 10.4 mph 16.1 mph N/A   Overcast
10:35 AM 63.5 °F - 61.7 °F 94% 29.99 in 10.0 mi NNW 10.4 mph - N/A   Overcast
10:55 AM 64.4 °F - 61.5 °F 90% 29.99 in 10.0 mi North 12.7 mph 17.3 mph N/A   Overcast
11:15 AM 65.7 °F - 59.9 °F 82% 29.99 in 10.0 mi North 12.7 mph - N/A   Overcast
11:35 AM 61.3 °F - 52.3 °F 72% 30.01 in 10.0 mi North 23.0 mph 33.4 mph N/A   Overcast
11:55 AM 56.5 °F - 45.3 °F 66% 30.02 in 10.0 mi North 21.9 mph 29.9 mph N/A   Overcast
12:15 PM 54.7 °F - 41.7 °F 62% 30.03 in 10.0 mi North 24.2 mph 31.1 mph N/A   Overcast
12:35 PM 53.6 °F - 38.7 °F 57% 30.03 in 10.0 mi North 23.0 mph 31.1 mph N/A   Overcast
12:55 PM 53.2 °F - 36.7 °F 53% 30.03 in 10.0 mi North 20.7 mph 25.3 mph N/A   Overcast
1:15 PM 54.3 °F - 36.3 °F 51% 30.03 in 10.0 mi North 19.6 mph 26.5 mph N/A   Overcast
1:35 PM 55.9 °F - 35.1 °F 45% 30.03 in 10.0 mi North 23.0 mph 31.1 mph N/A   Overcast
1:55 PM 57.0 °F - 33.8 °F 42% 30.03 in 10.0 mi North 21.9 mph 29.9 mph N/A   Overcast
2:15 PM 59.4 °F - 33.1 °F 37% 30.04 in 10.0 mi North 23.0 mph 29.9 mph N/A   Scattered Clouds
2:35 PM 60.4 °F - 32.0 °F 34% 30.04 in 10.0 mi North 20.7 mph 29.9 mph N/A   Clear
2:55 PM 61.9 °F - 31.5 °F 32% 30.05 in 10.0 mi North 23.0 mph 28.8 mph N/A   Clear
3:15 PM 60.3 °F - 30.6 °F 33% 30.06 in 10.0 mi North 21.9 mph 29.9 mph N/A   Clear
3:35 PM 59.2 °F - 29.5 °F 32% 30.07 in 10.0 mi North 23.0 mph 29.9 mph N/A   Clear
3:55 PM 57.6 °F - 28.4 °F 33% 30.09 in 10.0 mi North 20.7 mph 29.9 mph N/A   Clear
4:15 PM 56.7 °F - 28.6 °F 34% 30.10 in 10.0 mi North 20.7 mph 26.5 mph N/A   Clear
4:35 PM 56.3 °F - 28.9 °F 35% 30.11 in 10.0 mi North 18.4 mph 25.3 mph N/A   Clear
4:55 PM 55.8 °F - 29.5 °F 37% 30.12 in 10.0 mi North 20.7 mph 27.6 mph N/A   Clear
5:15 PM 54.7 °F - 29.3 °F 38% 30.13 in 10.0 mi North 16.1 mph 29.9 mph N/A   Clear
5:35 PM 53.8 °F - 29.5 °F 39% 30.15 in 10.0 mi North 18.4 mph 24.2 mph N/A   Clear
5:55 PM 53.2 °F - 29.3 °F 40% 30.16 in 10.0 mi North 12.7 mph - N/A   Clear
6:15 PM 52.7 °F - 29.5 °F 41% 30.17 in 10.0 mi North 13.8 mph 21.9 mph N/A   Clear
6:35 PM 52.2 °F - 28.6 °F 40% 30.19 in 10.0 mi North 15.0 mph - N/A   Clear
6:55 PM 51.6 °F - 27.5 °F 39% 30.20 in 10.0 mi North 16.1 mph - N/A   Clear
7:15 PM 51.3 °F - 27.1 °F 39% 30.22 in 10.0 mi North 11.5 mph - N/A   Clear
7:35 PM 50.9 °F - 27.5 °F 40% 30.23 in 10.0 mi North 13.8 mph - N/A   Clear
7:55 PM 50.9 °F - 27.1 °F 40% 30.25 in 10.0 mi North 18.4 mph 23.0 mph N/A   Clear
8:15 PM 50.7 °F - 24.8 °F 36% 30.26 in 10.0 mi North 20.7 mph 26.5 mph N/A   Clear
8:35 PM 50.2 °F - 24.1 °F 36% 30.28 in 10.0 mi North 16.1 mph 25.3 mph N/A   Clear
8:55 PM 49.6 °F - 23.9 °F 37% 30.29 in 10.0 mi North 16.1 mph 28.8 mph N/A   Clear
9:15 PM 49.1 °F - 23.0 °F 36% 30.31 in 10.0 mi North 19.6 mph 28.8 mph N/A   Clear
9:35 PM 48.2 °F - 23.0 °F 37% 30.31 in 10.0 mi North 20.7 mph 25.3 mph N/A   Clear
9:55 PM 47.8 °F - 22.1 °F 36% 30.33 in 10.0 mi North 17.3 mph 29.9 mph N/A   Clear
10:15 PM 46.8 °F - 21.6 °F 37% 30.34 in 10.0 mi North 23.0 mph 28.8 mph N/A   Clear
10:35 PM 46.0 °F 38.5 °F 21.7 °F 38% 30.35 in 10.0 mi North 19.6 mph 25.3 mph N/A   Clear
10:55 PM 45.3 °F 38.7 °F 22.1 °F 40% 30.36 in 10.0 mi North 15.0 mph 19.6 mph N/A   Clear
11:15 PM 44.8 °F 37.4 °F 21.9 °F 40% 30.36 in 10.0 mi North 17.3 mph 26.5 mph N/A   Clear
11:35 PM 44.6 °F 37.4 °F 21.9 °F 41% 30.37 in 10.0 mi North 16.1 mph 24.2 mph N/A   Clear
11:55 PM 44.1 °F 35.7 °F 22.1 °F 42% 30.37 in 10.0 mi North 20.7 mph 25.3 mph N/A   Clear